sensor_id;sensor_type;location;lat;lon;timestamp;temperature;humidity
1778;DHT22;886;50.082;8.222;2022-12-10T00:01:58;3.60;99.90
1778;DHT22;886;50.082;8.222;2022-12-10T00:04:25;3.60;99.90
1778;DHT22;886;50.082;8.222;2022-12-10T00:06:55;3.70;99.90
1778;DHT22;886;50.082;8.222;2022-12-10T00:09:22;3.70;99.90
1778;DHT22;886;50.082;8.222;2022-12-10T00:11:51;3.70;99.90
1778;DHT22;886;50.082;8.222;2022-12-10T00:14:18;3.60;99.90
1778;DHT22;886;50.082;8.222;2022-12-10T00:16:45;3.60;99.90
1778;DHT22;886;50.082;8.222;2022-12-10T00:19:18;3.60;99.90
1778;DHT22;886;50.082;8.222;2022-12-10T00:21:46;3.50;99.90
1778;DHT22;886;50.082;8.222;2022-12-10T00:24:21;3.50;99.90
1778;DHT22;886;50.082;8.222;2022-12-10T00:26:53;3.40;99.90
1778;DHT22;886;50.082;8.222;2022-12-10T00:29:20;3.40;99.90
1778;DHT22;886;50.082;8.222;2022-12-10T00:31:50;3.40;99.90
1778;DHT22;886;50.082;8.222;2022-12-10T00:34:17;3.30;99.90
1778;DHT22;886;50.082;8.222;2022-12-10T00:36:45;3.20;99.90
1778;DHT22;886;50.082;8.222;2022-12-10T00:39:16;3.20;99.90
1778;DHT22;886;50.082;8.222;2022-12-10T00:41:44;3.30;99.90
1778;DHT22;886;50.082;8.222;2022-12-10T00:44:16;3.30;99.90
1778;DHT22;886;50.082;8.222;2022-12-10T00:46:44;3.30;99.90
1778;DHT22;886;50.082;8.222;2022-12-10T00:49:11;3.20;99.90
1778;DHT22;886;50.082;8.222;2022-12-10T00:51:39;3.30;99.90
1778;DHT22;886;50.082;8.222;2022-12-10T00:54:20;3.30;99.90
1778;DHT22;886;50.082;8.222;2022-12-10T00:56:52;3.30;99.90
1778;DHT22;886;50.082;8.222;2022-12-10T00:59:21;3.30;99.90
1778;DHT22;886;50.082;8.222;2022-12-10T01:01:48;3.20;99.90
1778;DHT22;886;50.082;8.222;2022-12-10T01:04:16;3.30;99.90
1778;DHT22;886;50.082;8.222;2022-12-10T01:06:54;3.20;99.90
1778;DHT22;886;50.082;8.222;2022-12-10T01:09:25;3.30;99.90
1778;DHT22;886;50.082;8.222;2022-12-10T01:11:54;3.20;99.90
1778;DHT22;886;50.082;8.222;2022-12-10T01:14:26;3.20;99.90
1778;DHT22;886;50.082;8.222;2022-12-10T01:16:57;3.20;99.90
1778;DHT22;886;50.082;8.222;2022-12-10T01:19:26;3.20;99.90
1778;DHT22;886;50.082;8.222;2022-12-10T01:21:56;3.20;99.90
1778;DHT22;886;50.082;8.222;2022-12-10T01:24:26;3.20;99.90
1778;DHT22;886;50.082;8.222;2022-12-10T01:26:54;3.20;99.90
1778;DHT22;886;50.082;8.222;2022-12-10T01:29:22;3.10;99.90
1778;DHT22;886;50.082;8.222;2022-12-10T01:31:57;3.10;99.90
1778;DHT22;886;50.082;8.222;2022-12-10T01:34:25;3.10;99.90
1778;DHT22;886;50.082;8.222;2022-12-10T01:36:55;3.10;99.90
1778;DHT22;886;50.082;8.222;2022-12-10T01:39:25;3.00;99.90
1778;DHT22;886;50.082;8.222;2022-12-10T01:41:55;3.00;99.90
1778;DHT22;886;50.082;8.222;2022-12-10T01:47:36;3.00;99.90
1778;DHT22;886;50.082;8.222;2022-12-10T01:50:04;3.00;99.90
1778;DHT22;886;50.082;8.222;2022-12-10T01:52:37;2.90;99.90
1778;DHT22;886;50.082;8.222;2022-12-10T01:55:34;2.90;99.90
1778;DHT22;886;50.082;8.222;2022-12-10T01:58:04;2.90;99.90
1778;DHT22;886;50.082;8.222;2022-12-10T02:00:45;2.90;99.90
1778;DHT22;886;50.082;8.222;2022-12-10T02:03:20;2.90;99.90
1778;DHT22;886;50.082;8.222;2022-12-10T02:06:02;2.90;99.90
1778;DHT22;886;50.082;8.222;2022-12-10T02:08:39;2.90;99.90
1778;DHT22;886;50.082;8.222;2022-12-10T02:11:22;2.90;99.90
1778;DHT22;886;50.082;8.222;2022-12-10T02:13:56;2.80;99.90
1778;DHT22;886;50.082;8.222;2022-12-10T02:16:31;2.80;99.90
1778;DHT22;886;50.082;8.222;2022-12-10T02:19:06;2.80;99.90
1778;DHT22;886;50.082;8.222;2022-12-10T02:21:41;2.80;99.90
1778;DHT22;886;50.082;8.222;2022-12-10T02:24:19;2.80;99.90
1778;DHT22;886;50.082;8.222;2022-12-10T02:26:58;2.70;99.90
1778;DHT22;886;50.082;8.222;2022-12-10T02:29:34;2.70;99.90
1778;DHT22;886;50.082;8.222;2022-12-10T02:32:07;2.70;99.90
1778;DHT22;886;50.082;8.222;2022-12-10T02:34:45;2.70;99.90
1778;DHT22;886;50.082;8.222;2022-12-10T02:37:22;2.60;99.90
1778;DHT22;886;50.082;8.222;2022-12-10T02:39:56;2.60;99.90
1778;DHT22;886;50.082;8.222;2022-12-10T02:42:27;2.60;99.90
1778;DHT22;886;50.082;8.222;2022-12-10T02:44:57;2.50;99.90
1778;DHT22;886;50.082;8.222;2022-12-10T02:47:25;2.50;99.90
1778;DHT22;886;50.082;8.222;2022-12-10T02:49:53;2.50;99.90
1778;DHT22;886;50.082;8.222;2022-12-10T02:52:25;2.50;99.90
1778;DHT22;886;50.082;8.222;2022-12-10T02:54:55;2.40;99.90
1778;DHT22;886;50.082;8.222;2022-12-10T02:57:30;2.40;99.90
1778;DHT22;886;50.082;8.222;2022-12-10T03:00:09;2.40;99.90
1778;DHT22;886;50.082;8.222;2022-12-10T03:03:15;2.40;99.90
1778;DHT22;886;50.082;8.222;2022-12-10T03:05:52;2.30;99.90
1778;DHT22;886;50.082;8.222;2022-12-10T03:08:30;2.30;99.90
1778;DHT22;886;50.082;8.222;2022-12-10T03:11:07;2.20;99.90
1778;DHT22;886;50.082;8.222;2022-12-10T03:13:38;2.30;99.90
1778;DHT22;886;50.082;8.222;2022-12-10T03:16:09;2.30;99.90
1778;DHT22;886;50.082;8.222;2022-12-10T03:18:37;2.20;99.90
1778;DHT22;886;50.082;8.222;2022-12-10T03:21:06;2.30;99.90
1778;DHT22;886;50.082;8.222;2022-12-10T03:23:46;2.20;99.90
1778;DHT22;886;50.082;8.222;2022-12-10T03:26:24;2.20;99.90
1778;DHT22;886;50.082;8.222;2022-12-10T03:28:56;2.10;99.90
1778;DHT22;886;50.082;8.222;2022-12-10T03:31:30;2.10;99.90
1778;DHT22;886;50.082;8.222;2022-12-10T03:33:57;2.10;99.90
1778;DHT22;886;50.082;8.222;2022-12-10T03:36:25;2.10;99.90
1778;DHT22;886;50.082;8.222;2022-12-10T03:38:54;2.10;99.90
1778;DHT22;886;50.082;8.222;2022-12-10T03:41:24;2.20;99.90
1778;DHT22;886;50.082;8.222;2022-12-10T03:43:58;2.10;99.90
1778;DHT22;886;50.082;8.222;2022-12-10T03:46:29;2.20;99.90
1778;DHT22;886;50.082;8.222;2022-12-10T03:48:58;2.10;99.90
1778;DHT22;886;50.082;8.222;2022-12-10T03:51:32;2.10;99.90
1778;DHT22;886;50.082;8.222;2022-12-10T03:53:59;2.10;99.90
1778;DHT22;886;50.082;8.222;2022-12-10T03:56:29;2.10;99.90
1778;DHT22;886;50.082;8.222;2022-12-10T03:58:59;2.10;99.90
1778;DHT22;886;50.082;8.222;2022-12-10T04:01:27;2.10;99.90
1778;DHT22;886;50.082;8.222;2022-12-10T04:03:54;2.10;99.90
1778;DHT22;886;50.082;8.222;2022-12-10T04:06:25;2.10;99.90
1778;DHT22;886;50.082;8.222;2022-12-10T04:08:52;2.10;99.90
1778;DHT22;886;50.082;8.222;2022-12-10T04:11:25;1.90;99.90
1778;DHT22;886;50.082;8.222;2022-12-10T04:13:58;1.90;99.90
1778;DHT22;886;50.082;8.222;2022-12-10T04:16:51;1.90;99.90
1778;DHT22;886;50.082;8.222;2022-12-10T04:19:19;1.80;99.90
1778;DHT22;886;50.082;8.222;2022-12-10T04:21:52;1.90;99.90
1778;DHT22;886;50.082;8.222;2022-12-10T04:24:40;1.90;99.90
1778;DHT22;886;50.082;8.222;2022-12-10T04:27:35;1.90;99.90
1778;DHT22;886;50.082;8.222;2022-12-10T04:30:05;1.90;99.90
1778;DHT22;886;50.082;8.222;2022-12-10T04:32:39;2.00;99.90
1778;DHT22;886;50.082;8.222;2022-12-10T04:35:07;2.00;99.90
1778;DHT22;886;50.082;8.222;2022-12-10T04:37:37;2.00;99.90
1778;DHT22;886;50.082;8.222;2022-12-10T04:40:05;2.00;99.90
1778;DHT22;886;50.082;8.222;2022-12-10T04:42:36;1.90;99.90
1778;DHT22;886;50.082;8.222;2022-12-10T04:45:04;1.90;99.90
1778;DHT22;886;50.082;8.222;2022-12-10T04:47:39;1.90;99.90
1778;DHT22;886;50.082;8.222;2022-12-10T04:50:07;1.80;99.90
1778;DHT22;886;50.082;8.222;2022-12-10T04:52:37;1.80;99.90
1778;DHT22;886;50.082;8.222;2022-12-10T04:55:05;1.70;99.90
1778;DHT22;886;50.082;8.222;2022-12-10T04:57:43;1.80;99.90
1778;DHT22;886;50.082;8.222;2022-12-10T05:00:19;1.80;99.90
1778;DHT22;886;50.082;8.222;2022-12-10T05:02:49;1.80;99.90
1778;DHT22;886;50.082;8.222;2022-12-10T05:05:16;1.70;99.90
1778;DHT22;886;50.082;8.222;2022-12-10T05:07:53;1.70;99.90
1778;DHT22;886;50.082;8.222;2022-12-10T05:10:23;1.80;99.90
1778;DHT22;886;50.082;8.222;2022-12-10T05:12:50;1.70;99.90
1778;DHT22;886;50.082;8.222;2022-12-10T05:15:17;1.70;99.90
1778;DHT22;886;50.082;8.222;2022-12-10T05:17:44;1.70;99.90
1778;DHT22;886;50.082;8.222;2022-12-10T05:20:13;1.70;99.90
1778;DHT22;886;50.082;8.222;2022-12-10T05:22:40;1.60;99.90
1778;DHT22;886;50.082;8.222;2022-12-10T05:25:25;1.60;99.90
1778;DHT22;886;50.082;8.222;2022-12-10T05:27:52;1.70;99.90
1778;DHT22;886;50.082;8.222;2022-12-10T05:30:20;1.70;99.90
1778;DHT22;886;50.082;8.222;2022-12-10T05:32:50;1.80;99.90
1778;DHT22;886;50.082;8.222;2022-12-10T05:35:21;1.60;99.90
1778;DHT22;886;50.082;8.222;2022-12-10T05:37:48;1.50;99.90
1778;DHT22;886;50.082;8.222;2022-12-10T05:40:21;1.60;99.90
1778;DHT22;886;50.082;8.222;2022-12-10T05:42:51;1.60;99.90
1778;DHT22;886;50.082;8.222;2022-12-10T05:45:21;1.50;99.90
1778;DHT22;886;50.082;8.222;2022-12-10T05:47:48;1.40;99.90
1778;DHT22;886;50.082;8.222;2022-12-10T05:50:18;1.50;99.90
1778;DHT22;886;50.082;8.222;2022-12-10T05:52:51;1.60;99.90
1778;DHT22;886;50.082;8.222;2022-12-10T05:55:18;1.60;99.90
1778;DHT22;886;50.082;8.222;2022-12-10T05:57:59;1.70;99.90
1778;DHT22;886;50.082;8.222;2022-12-10T06:00:29;1.70;99.90
1778;DHT22;886;50.082;8.222;2022-12-10T06:02:59;1.70;99.90
1778;DHT22;886;50.082;8.222;2022-12-10T06:05:27;1.70;99.90
1778;DHT22;886;50.082;8.222;2022-12-10T06:07:57;1.70;99.90
1778;DHT22;886;50.082;8.222;2022-12-10T06:10:24;1.60;99.90
1778;DHT22;886;50.082;8.222;2022-12-10T06:12:51;1.70;99.90
1778;DHT22;886;50.082;8.222;2022-12-10T06:15:18;1.70;99.90
1778;DHT22;886;50.082;8.222;2022-12-10T06:17:54;1.70;99.90
1778;DHT22;886;50.082;8.222;2022-12-10T06:20:21;1.60;99.90
1778;DHT22;886;50.082;8.222;2022-12-10T06:22:48;1.60;99.90
1778;DHT22;886;50.082;8.222;2022-12-10T06:25:17;1.60;99.90
1778;DHT22;886;50.082;8.222;2022-12-10T06:27:44;1.70;99.90
1778;DHT22;886;50.082;8.222;2022-12-10T06:30:18;1.70;99.90
1778;DHT22;886;50.082;8.222;2022-12-10T06:32:45;1.80;99.90
1778;DHT22;886;50.082;8.222;2022-12-10T06:35:12;1.80;99.90
1778;DHT22;886;50.082;8.222;2022-12-10T06:37:39;1.80;99.90
1778;DHT22;886;50.082;8.222;2022-12-10T06:40:07;1.80;99.90
1778;DHT22;886;50.082;8.222;2022-12-10T06:42:36;1.90;99.90
1778;DHT22;886;50.082;8.222;2022-12-10T06:45:04;2.00;99.90
1778;DHT22;886;50.082;8.222;2022-12-10T06:47:32;1.90;99.90
1778;DHT22;886;50.082;8.222;2022-12-10T06:49:59;1.90;99.90
1778;DHT22;886;50.082;8.222;2022-12-10T06:52:28;1.90;99.90
1778;DHT22;886;50.082;8.222;2022-12-10T06:54:55;1.90;99.90
1778;DHT22;886;50.082;8.222;2022-12-10T06:57:23;1.80;99.90
1778;DHT22;886;50.082;8.222;2022-12-10T06:59:51;1.70;99.90
1778;DHT22;886;50.082;8.222;2022-12-10T07:02:18;1.80;99.90
1778;DHT22;886;50.082;8.222;2022-12-10T07:04:45;1.80;99.90
1778;DHT22;886;50.082;8.222;2022-12-10T07:07:12;1.80;99.90
1778;DHT22;886;50.082;8.222;2022-12-10T07:09:39;1.80;99.90
1778;DHT22;886;50.082;8.222;2022-12-10T07:12:06;1.80;99.90
1778;DHT22;886;50.082;8.222;2022-12-10T07:14:34;1.90;99.90
1778;DHT22;886;50.082;8.222;2022-12-10T07:17:02;1.90;99.90
1778;DHT22;886;50.082;8.222;2022-12-10T07:19:30;1.80;99.90
1778;DHT22;886;50.082;8.222;2022-12-10T07:21:57;1.80;99.90
1778;DHT22;886;50.082;8.222;2022-12-10T07:24:24;1.90;99.90
1778;DHT22;886;50.082;8.222;2022-12-10T07:26:51;1.90;99.90
1778;DHT22;886;50.082;8.222;2022-12-10T07:29:21;2.00;99.90
1778;DHT22;886;50.082;8.222;2022-12-10T07:31:49;2.20;99.90
1778;DHT22;886;50.082;8.222;2022-12-10T07:34:17;2.20;99.90
1778;DHT22;886;50.082;8.222;2022-12-10T07:36:45;2.30;99.90
1778;DHT22;886;50.082;8.222;2022-12-10T07:39:12;2.40;99.90
1778;DHT22;886;50.082;8.222;2022-12-10T07:41:44;2.30;99.90
1778;DHT22;886;50.082;8.222;2022-12-10T07:44:12;2.40;99.90
1778;DHT22;886;50.082;8.222;2022-12-10T07:46:39;2.50;99.90
1778;DHT22;886;50.082;8.222;2022-12-10T07:49:06;2.50;99.90
1778;DHT22;886;50.082;8.222;2022-12-10T07:51:44;2.50;99.90
1778;DHT22;886;50.082;8.222;2022-12-10T07:54:12;2.60;99.90
1778;DHT22;886;50.082;8.222;2022-12-10T07:56:39;2.60;99.90
1778;DHT22;886;50.082;8.222;2022-12-10T07:59:06;2.60;99.90
1778;DHT22;886;50.082;8.222;2022-12-10T08:01:39;2.60;99.90
1778;DHT22;886;50.082;8.222;2022-12-10T08:04:06;2.60;99.90
1778;DHT22;886;50.082;8.222;2022-12-10T08:06:38;2.60;99.90
1778;DHT22;886;50.082;8.222;2022-12-10T08:09:05;2.60;99.90
1778;DHT22;886;50.082;8.222;2022-12-10T08:11:32;2.60;99.90
1778;DHT22;886;50.082;8.222;2022-12-10T08:13:59;2.60;99.90
1778;DHT22;886;50.082;8.222;2022-12-10T08:16:28;2.60;99.90
1778;DHT22;886;50.082;8.222;2022-12-10T08:18:57;2.60;99.90
1778;DHT22;886;50.082;8.222;2022-12-10T08:21:27;2.60;99.90
1778;DHT22;886;50.082;8.222;2022-12-10T08:23:57;2.60;99.90
1778;DHT22;886;50.082;8.222;2022-12-10T08:26:26;2.70;99.90
1778;DHT22;886;50.082;8.222;2022-12-10T08:28:54;2.70;99.90
1778;DHT22;886;50.082;8.222;2022-12-10T08:31:23;2.60;99.90
1778;DHT22;886;50.082;8.222;2022-12-10T08:33:51;2.70;99.90
1778;DHT22;886;50.082;8.222;2022-12-10T08:36:19;2.70;99.90
1778;DHT22;886;50.082;8.222;2022-12-10T08:38:46;2.70;99.90
1778;DHT22;886;50.082;8.222;2022-12-10T08:41:16;2.80;99.90
1778;DHT22;886;50.082;8.222;2022-12-10T08:43:44;2.80;99.90
1778;DHT22;886;50.082;8.222;2022-12-10T08:46:12;2.80;99.90
1778;DHT22;886;50.082;8.222;2022-12-10T08:48:40;2.80;99.90
1778;DHT22;886;50.082;8.222;2022-12-10T08:51:17;2.80;99.90
1778;DHT22;886;50.082;8.222;2022-12-10T08:53:51;2.80;99.90
1778;DHT22;886;50.082;8.222;2022-12-10T08:56:25;2.80;99.90
1778;DHT22;886;50.082;8.222;2022-12-10T08:58:54;2.70;99.90
1778;DHT22;886;50.082;8.222;2022-12-10T09:01:26;2.70;99.90
1778;DHT22;886;50.082;8.222;2022-12-10T09:03:54;2.70;99.90
1778;DHT22;886;50.082;8.222;2022-12-10T09:06:23;2.70;99.90
1778;DHT22;886;50.082;8.222;2022-12-10T09:08:54;2.80;99.90
1778;DHT22;886;50.082;8.222;2022-12-10T09:11:23;2.80;99.90
1778;DHT22;886;50.082;8.222;2022-12-10T09:13:53;2.80;99.90
1778;DHT22;886;50.082;8.222;2022-12-10T09:16:28;2.80;99.90
1778;DHT22;886;50.082;8.222;2022-12-10T09:18:56;2.80;99.90
1778;DHT22;886;50.082;8.222;2022-12-10T09:21:23;2.80;99.90
1778;DHT22;886;50.082;8.222;2022-12-10T09:23:54;2.80;99.90
1778;DHT22;886;50.082;8.222;2022-12-10T09:26:25;2.80;99.90
1778;DHT22;886;50.082;8.222;2022-12-10T09:28:53;2.80;99.90
1778;DHT22;886;50.082;8.222;2022-12-10T09:31:27;2.80;99.90
1778;DHT22;886;50.082;8.222;2022-12-10T09:33:54;2.80;99.90
1778;DHT22;886;50.082;8.222;2022-12-10T09:36:22;2.80;99.90
1778;DHT22;886;50.082;8.222;2022-12-10T09:38:55;2.90;99.90
1778;DHT22;886;50.082;8.222;2022-12-10T09:41:43;3.10;99.90
1778;DHT22;886;50.082;8.222;2022-12-10T09:44:31;3.10;99.90
1778;DHT22;886;50.082;8.222;2022-12-10T09:47:03;3.20;99.90
1778;DHT22;886;50.082;8.222;2022-12-10T09:49:44;3.20;99.90
1778;DHT22;886;50.082;8.222;2022-12-10T09:52:19;3.20;99.90
1778;DHT22;886;50.082;8.222;2022-12-10T09:54:50;3.20;99.90
1778;DHT22;886;50.082;8.222;2022-12-10T09:57:25;3.30;99.90
1778;DHT22;886;50.082;8.222;2022-12-10T10:00:00;3.40;99.90
1778;DHT22;886;50.082;8.222;2022-12-10T10:02:31;3.40;99.90
1778;DHT22;886;50.082;8.222;2022-12-10T10:05:11;3.50;99.90
1778;DHT22;886;50.082;8.222;2022-12-10T10:07:43;3.50;99.90
1778;DHT22;886;50.082;8.222;2022-12-10T10:10:23;3.40;99.90
1778;DHT22;886;50.082;8.222;2022-12-10T10:13:00;3.40;99.90
1778;DHT22;886;50.082;8.222;2022-12-10T10:15:42;3.50;99.90
1778;DHT22;886;50.082;8.222;2022-12-10T10:18:26;3.70;99.90
1778;DHT22;886;50.082;8.222;2022-12-10T10:21:05;3.70;99.90
1778;DHT22;886;50.082;8.222;2022-12-10T10:24:00;3.80;99.90
1778;DHT22;886;50.082;8.222;2022-12-10T10:26:38;3.90;99.90
1778;DHT22;886;50.082;8.222;2022-12-10T10:29:15;4.00;99.90
1778;DHT22;886;50.082;8.222;2022-12-10T10:31:57;4.10;99.90
1778;DHT22;886;50.082;8.222;2022-12-10T10:34:46;4.00;99.90
1778;DHT22;886;50.082;8.222;2022-12-10T10:37:25;4.00;99.90
1778;DHT22;886;50.082;8.222;2022-12-10T10:39:57;3.90;99.90
1778;DHT22;886;50.082;8.222;2022-12-10T10:42:43;3.80;99.90
1778;DHT22;886;50.082;8.222;2022-12-10T10:45:35;3.80;99.90
1778;DHT22;886;50.082;8.222;2022-12-10T10:48:14;3.70;99.90
1778;DHT22;886;50.082;8.222;2022-12-10T10:50:51;3.60;99.90
1778;DHT22;886;50.082;8.222;2022-12-10T10:53:25;3.70;99.90
1778;DHT22;886;50.082;8.222;2022-12-10T10:56:06;3.70;99.90
1778;DHT22;886;50.082;8.222;2022-12-10T10:58:49;3.70;99.90
1778;DHT22;886;50.082;8.222;2022-12-10T11:01:26;3.70;99.90
1778;DHT22;886;50.082;8.222;2022-12-10T11:04:09;3.90;99.90
1778;DHT22;886;50.082;8.222;2022-12-10T11:06:37;3.90;99.90
1778;DHT22;886;50.082;8.222;2022-12-10T11:09:05;4.00;99.90
1778;DHT22;886;50.082;8.222;2022-12-10T11:11:41;4.10;99.90
1778;DHT22;886;50.082;8.222;2022-12-10T11:14:15;4.10;99.90
1778;DHT22;886;50.082;8.222;2022-12-10T11:17:02;4.00;99.90
1778;DHT22;886;50.082;8.222;2022-12-10T11:19:42;4.00;99.90
1778;DHT22;886;50.082;8.222;2022-12-10T11:22:20;3.90;99.90
1778;DHT22;886;50.082;8.222;2022-12-10T11:24:51;3.90;99.90
1778;DHT22;886;50.082;8.222;2022-12-10T11:27:38;4.00;99.90
1778;DHT22;886;50.082;8.222;2022-12-10T11:30:14;4.00;99.90
1778;DHT22;886;50.082;8.222;2022-12-10T11:33:09;3.90;99.90
1778;DHT22;886;50.082;8.222;2022-12-10T11:36:13;3.90;99.90
1778;DHT22;886;50.082;8.222;2022-12-10T11:38:54;4.00;99.90
1778;DHT22;886;50.082;8.222;2022-12-10T11:41:34;3.90;99.90
1778;DHT22;886;50.082;8.222;2022-12-10T11:44:23;4.00;99.90
1778;DHT22;886;50.082;8.222;2022-12-10T11:47:09;4.10;99.90
1778;DHT22;886;50.082;8.222;2022-12-10T11:50:12;4.10;99.90
1778;DHT22;886;50.082;8.222;2022-12-10T11:52:52;4.10;99.90
1778;DHT22;886;50.082;8.222;2022-12-10T11:55:33;4.20;99.90
1778;DHT22;886;50.082;8.222;2022-12-10T11:58:43;4.20;99.90
1778;DHT22;886;50.082;8.222;2022-12-10T12:01:32;4.20;99.90
1778;DHT22;886;50.082;8.222;2022-12-10T12:04:22;4.20;99.90
1778;DHT22;886;50.082;8.222;2022-12-10T12:07:12;4.20;99.90
1778;DHT22;886;50.082;8.222;2022-12-10T12:10:54;4.20;99.90
1778;DHT22;886;50.082;8.222;2022-12-10T12:13:33;4.10;99.90
1778;DHT22;886;50.082;8.222;2022-12-10T12:16:06;4.10;99.90
1778;DHT22;886;50.082;8.222;2022-12-10T12:18:43;4.10;99.90
1778;DHT22;886;50.082;8.222;2022-12-10T12:21:15;4.20;99.90
1778;DHT22;886;50.082;8.222;2022-12-10T12:23:51;4.10;99.90
1778;DHT22;886;50.082;8.222;2022-12-10T12:26:32;4.20;99.90
1778;DHT22;886;50.082;8.222;2022-12-10T12:29:10;4.20;99.90
1778;DHT22;886;50.082;8.222;2022-12-10T12:31:42;4.20;99.90
1778;DHT22;886;50.082;8.222;2022-12-10T12:34:17;4.30;99.90
1778;DHT22;886;50.082;8.222;2022-12-10T12:36:47;4.30;99.90
1778;DHT22;886;50.082;8.222;2022-12-10T12:39:21;4.20;99.90
1778;DHT22;886;50.082;8.222;2022-12-10T12:42:03;4.20;99.90
1778;DHT22;886;50.082;8.222;2022-12-10T12:44:50;4.10;99.90
1778;DHT22;886;50.082;8.222;2022-12-10T12:47:36;4.10;99.90
1778;DHT22;886;50.082;8.222;2022-12-10T12:50:17;4.10;99.90
1778;DHT22;886;50.082;8.222;2022-12-10T12:53:02;4.10;99.90
1778;DHT22;886;50.082;8.222;2022-12-10T12:55:45;4.00;99.90
1778;DHT22;886;50.082;8.222;2022-12-10T12:58:30;4.00;99.90
1778;DHT22;886;50.082;8.222;2022-12-10T13:01:12;4.10;99.90
1778;DHT22;886;50.082;8.222;2022-12-10T13:03:48;4.10;99.90
1778;DHT22;886;50.082;8.222;2022-12-10T13:06:20;4.10;99.90
1778;DHT22;886;50.082;8.222;2022-12-10T13:08:53;4.10;99.90
1778;DHT22;886;50.082;8.222;2022-12-10T13:11:31;4.10;99.90
1778;DHT22;886;50.082;8.222;2022-12-10T13:14:34;4.10;99.90
1778;DHT22;886;50.082;8.222;2022-12-10T13:17:22;4.10;99.90
1778;DHT22;886;50.082;8.222;2022-12-10T13:19:54;4.10;99.90
1778;DHT22;886;50.082;8.222;2022-12-10T13:22:59;4.10;99.90
1778;DHT22;886;50.082;8.222;2022-12-10T13:28:40;4.10;99.90
1778;DHT22;886;50.082;8.222;2022-12-10T13:31:34;4.10;99.90
1778;DHT22;886;50.082;8.222;2022-12-10T13:34:23;4.00;99.90
1778;DHT22;886;50.082;8.222;2022-12-10T13:37:18;4.10;99.90
1778;DHT22;886;50.082;8.222;2022-12-10T13:40:14;4.20;99.90
1778;DHT22;886;50.082;8.222;2022-12-10T13:42:58;4.20;99.90
1778;DHT22;886;50.082;8.222;2022-12-10T13:45:48;4.20;99.90
1778;DHT22;886;50.082;8.222;2022-12-10T13:48:30;4.10;99.90
1778;DHT22;886;50.082;8.222;2022-12-10T13:51:18;4.10;99.90
1778;DHT22;886;50.082;8.222;2022-12-10T13:54:05;4.00;99.90
1778;DHT22;886;50.082;8.222;2022-12-10T13:57:04;4.00;99.90
1778;DHT22;886;50.082;8.222;2022-12-10T13:59:42;3.90;99.90
1778;DHT22;886;50.082;8.222;2022-12-10T14:02:32;4.00;99.90
1778;DHT22;886;50.082;8.222;2022-12-10T14:08:30;3.80;99.90
1778;DHT22;886;50.082;8.222;2022-12-10T14:11:12;3.80;99.90
1778;DHT22;886;50.082;8.222;2022-12-10T14:13:49;3.70;99.90
1778;DHT22;886;50.082;8.222;2022-12-10T14:16:22;3.70;99.90
1778;DHT22;886;50.082;8.222;2022-12-10T14:19:02;3.70;99.90
1778;DHT22;886;50.082;8.222;2022-12-10T14:21:35;3.60;99.90
1778;DHT22;886;50.082;8.222;2022-12-10T14:26:58;3.70;99.90
1778;DHT22;886;50.082;8.222;2022-12-10T14:29:30;3.60;99.90
1778;DHT22;886;50.082;8.222;2022-12-10T14:31:57;3.70;99.90
1778;DHT22;886;50.082;8.222;2022-12-10T14:34:27;3.70;99.90
1778;DHT22;886;50.082;8.222;2022-12-10T14:37:01;3.70;99.90
1778;DHT22;886;50.082;8.222;2022-12-10T14:39:31;3.70;99.90
1778;DHT22;886;50.082;8.222;2022-12-10T14:42:04;3.70;99.90
1778;DHT22;886;50.082;8.222;2022-12-10T14:44:34;3.70;99.90
1778;DHT22;886;50.082;8.222;2022-12-10T14:47:06;3.70;99.90
1778;DHT22;886;50.082;8.222;2022-12-10T14:49:41;3.70;99.90
1778;DHT22;886;50.082;8.222;2022-12-10T14:52:15;3.60;99.90
1778;DHT22;886;50.082;8.222;2022-12-10T14:54:44;3.50;99.90
1778;DHT22;886;50.082;8.222;2022-12-10T14:57:16;3.50;99.90
1778;DHT22;886;50.082;8.222;2022-12-10T14:59:47;3.40;99.90
1778;DHT22;886;50.082;8.222;2022-12-10T15:02:22;3.40;99.90
1778;DHT22;886;50.082;8.222;2022-12-10T15:04:58;3.30;99.90
1778;DHT22;886;50.082;8.222;2022-12-10T15:07:31;3.30;99.90
1778;DHT22;886;50.082;8.222;2022-12-10T15:10:16;3.20;99.90
1778;DHT22;886;50.082;8.222;2022-12-10T15:12:49;3.20;99.90
1778;DHT22;886;50.082;8.222;2022-12-10T15:15:24;3.10;99.90
1778;DHT22;886;50.082;8.222;2022-12-10T15:17:58;3.00;99.90
1778;DHT22;886;50.082;8.222;2022-12-10T15:20:30;3.00;99.90
1778;DHT22;886;50.082;8.222;2022-12-10T15:23:15;3.00;99.90
1778;DHT22;886;50.082;8.222;2022-12-10T15:25:47;3.00;99.90
1778;DHT22;886;50.082;8.222;2022-12-10T15:28:25;2.90;99.90
1778;DHT22;886;50.082;8.222;2022-12-10T15:30:56;2.90;99.90
1778;DHT22;886;50.082;8.222;2022-12-10T15:33:31;2.90;99.90
1778;DHT22;886;50.082;8.222;2022-12-10T15:36:00;2.90;99.90
1778;DHT22;886;50.082;8.222;2022-12-10T15:38:28;2.80;99.90
1778;DHT22;886;50.082;8.222;2022-12-10T15:41:00;2.80;99.90
1778;DHT22;886;50.082;8.222;2022-12-10T15:43:58;2.90;99.90
1778;DHT22;886;50.082;8.222;2022-12-10T15:46:27;2.90;99.90
1778;DHT22;886;50.082;8.222;2022-12-10T15:48:55;2.90;99.90
1778;DHT22;886;50.082;8.222;2022-12-10T15:51:38;2.80;99.90
1778;DHT22;886;50.082;8.222;2022-12-10T15:54:29;2.80;99.90
1778;DHT22;886;50.082;8.222;2022-12-10T15:57:00;2.80;99.90
1778;DHT22;886;50.082;8.222;2022-12-10T15:59:27;2.80;99.90
1778;DHT22;886;50.082;8.222;2022-12-10T16:01:54;2.80;99.90
1778;DHT22;886;50.082;8.222;2022-12-10T16:04:25;2.80;99.90
1778;DHT22;886;50.082;8.222;2022-12-10T16:06:53;2.70;99.90
1778;DHT22;886;50.082;8.222;2022-12-10T16:09:20;2.70;99.90
1778;DHT22;886;50.082;8.222;2022-12-10T16:11:47;2.70;99.90
1778;DHT22;886;50.082;8.222;2022-12-10T16:14:14;2.60;99.90
1778;DHT22;886;50.082;8.222;2022-12-10T16:16:44;2.60;99.90
1778;DHT22;886;50.082;8.222;2022-12-10T16:19:11;2.50;99.90
1778;DHT22;886;50.082;8.222;2022-12-10T16:21:40;2.50;99.90
1778;DHT22;886;50.082;8.222;2022-12-10T16:24:08;2.40;99.90
1778;DHT22;886;50.082;8.222;2022-12-10T16:26:41;2.40;99.90
1778;DHT22;886;50.082;8.222;2022-12-10T16:29:12;2.30;99.90
1778;DHT22;886;50.082;8.222;2022-12-10T16:31:39;2.30;99.90
1778;DHT22;886;50.082;8.222;2022-12-10T16:34:06;2.20;99.90
1778;DHT22;886;50.082;8.222;2022-12-10T16:36:37;2.20;99.90
1778;DHT22;886;50.082;8.222;2022-12-10T16:39:14;2.20;99.90
1778;DHT22;886;50.082;8.222;2022-12-10T16:41:41;2.20;99.90
1778;DHT22;886;50.082;8.222;2022-12-10T16:44:09;2.20;99.90
1778;DHT22;886;50.082;8.222;2022-12-10T16:46:36;2.20;99.90
1778;DHT22;886;50.082;8.222;2022-12-10T16:49:03;2.20;99.90
1778;DHT22;886;50.082;8.222;2022-12-10T16:51:31;2.20;99.90
1778;DHT22;886;50.082;8.222;2022-12-10T16:53:59;2.20;99.90
1778;DHT22;886;50.082;8.222;2022-12-10T16:56:27;2.10;99.90
1778;DHT22;886;50.082;8.222;2022-12-10T16:59:03;2.10;99.90
1778;DHT22;886;50.082;8.222;2022-12-10T17:01:38;2.10;99.90
1778;DHT22;886;50.082;8.222;2022-12-10T17:04:08;2.00;99.90
1778;DHT22;886;50.082;8.222;2022-12-10T17:06:38;2.10;99.90
1778;DHT22;886;50.082;8.222;2022-12-10T17:09:07;2.00;99.90
1778;DHT22;886;50.082;8.222;2022-12-10T17:11:45;2.00;99.90
1778;DHT22;886;50.082;8.222;2022-12-10T17:14:20;2.00;99.90
1778;DHT22;886;50.082;8.222;2022-12-10T17:16:49;2.00;99.90
1778;DHT22;886;50.082;8.222;2022-12-10T17:19:23;2.00;99.90
1778;DHT22;886;50.082;8.222;2022-12-10T17:21:51;1.90;99.90
1778;DHT22;886;50.082;8.222;2022-12-10T17:24:18;1.90;99.90
1778;DHT22;886;50.082;8.222;2022-12-10T17:26:48;1.90;99.90
1778;DHT22;886;50.082;8.222;2022-12-10T17:29:24;1.90;99.90
1778;DHT22;886;50.082;8.222;2022-12-10T17:31:58;1.90;99.90